首页
METAR-TAF:

METAR-TAF

机场 :

长岛麦克阿瑟机场

Islip, 紐約州, 美国

纬度: 40-47-38N, 经度: 073-06-06W, 海拔: 30米

当前天气观测

该预报发布于37分钟前的23:56 UTC
风速5节,风向东南
温度 22°C
湿度 94%
气压 1012 hPa
能見度: 4.0公里
阴天层高于300英尺
轻雾

METAR: KISP 252356Z 13005KT 2 1/2SM BR OVC003 22/21 A2987 RMK AO2 SFC VIS 5 SLP113 T02170211 10233 20211 53013

时间: 20:33 (00:33 UTC)

预报

该预报发布于1小时和7分钟前的23:26 UTC
预报有效从26日的 00点(UTC)到 26日的 24点(UTC)
风速7节,风向南转南东
能見度: 8.0公里
多云层高于500英尺
轻雾
短暂存在
从 26日的 00点(UTC)到 26日的 04点(UTC)
能見度: 9.7公里
散云层高于500英尺
轻雾
从 26日的 0400点(UTC)
风速4节,风向多变
能見度: 8.0公里
多云层高于400英尺
轻雾
从 26日的 0900点(UTC)
风速5节,风向北转西北
能見度: 9.7公里
散云层高于400英尺
轻雾
从 26日的 1300点(UTC)
风速6节,风向
能見度: 10公里
少量云层高于5000英尺
从 26日的 1700点(UTC)
风速7节,风向西
能見度: 10公里
散云层高于5000英尺
从 26日的 1900点(UTC)
风速8节,风向西南
能見度: 10公里
散云层高于5000英尺

TAF: KISP 252326Z 2600/2624 16007KT 5SM BR BKN005 TEMPO 2600/2604 6SM BR SCT005 FM260400 VRB04KT 5SM BR BKN004 FM260900 34005KT 6SM BR SCT004 FM261300 35006KT P6SM FEW050 FM261700 27007KT P6SM SCT050 FM261900 22008KT P6SM SCT050

超过4000个机场的气象观测和天气预报(METAR&TAF报告)。

可查询的气象台以黄色和红色小点在地图上表示。

将鼠标移到小点上方,可查看气象台名称。

然后点击查看天气观测和预报。

如需切换地图:点击带黑十字的绿色按钮放大地图;点击带横线的绿色按钮缩小地图;或者点击绿色箭头查看邻近地区的地图。


METAR-TAF: